sensor_id;sensor_type;location;lat;lon;timestamp;P1;durP1;ratioP1;P2;durP2;ratioP2
51499;SDS011;39101;53.478;6.158;2022-07-18T00:01:55;4.45;;;2.75;;
51499;SDS011;39101;53.478;6.158;2022-07-18T00:04:21;5.05;;;2.58;;
51499;SDS011;39101;53.478;6.158;2022-07-18T00:06:47;4.28;;;2.88;;
51499;SDS011;39101;53.478;6.158;2022-07-18T00:09:13;6.25;;;2.67;;
51499;SDS011;39101;53.478;6.158;2022-07-18T00:11:38;5.25;;;3.78;;
51499;SDS011;39101;53.478;6.158;2022-07-18T00:14:04;3.83;;;2.85;;
51499;SDS011;39101;53.478;6.158;2022-07-18T00:16:30;7.90;;;2.97;;
51499;SDS011;39101;53.478;6.158;2022-07-18T00:18:56;5.82;;;3.10;;
51499;SDS011;39101;53.478;6.158;2022-07-18T00:21:25;3.67;;;2.47;;
51499;SDS011;39101;53.478;6.158;2022-07-18T00:23:51;4.22;;;2.72;;
51499;SDS011;39101;53.478;6.158;2022-07-18T00:26:16;4.55;;;2.80;;
51499;SDS011;39101;53.478;6.158;2022-07-18T00:28:42;4.35;;;2.63;;
51499;SDS011;39101;53.478;6.158;2022-07-18T00:31:08;5.93;;;2.88;;
51499;SDS011;39101;53.478;6.158;2022-07-18T00:33:33;9.18;;;2.80;;
51499;SDS011;39101;53.478;6.158;2022-07-18T00:35:59;7.05;;;3.30;;
51499;SDS011;39101;53.478;6.158;2022-07-18T00:38:25;7.50;;;3.47;;
51499;SDS011;39101;53.478;6.158;2022-07-18T00:40:51;6.90;;;3.15;;
51499;SDS011;39101;53.478;6.158;2022-07-18T00:43:17;6.57;;;3.33;;
51499;SDS011;39101;53.478;6.158;2022-07-18T00:45:46;7.55;;;4.63;;
51499;SDS011;39101;53.478;6.158;2022-07-18T00:48:13;5.60;;;3.88;;
51499;SDS011;39101;53.478;6.158;2022-07-18T00:50:39;6.38;;;3.80;;
51499;SDS011;39101;53.478;6.158;2022-07-18T00:53:05;6.10;;;4.07;;
51499;SDS011;39101;53.478;6.158;2022-07-18T00:55:31;7.18;;;4.40;;
51499;SDS011;39101;53.478;6.158;2022-07-18T00:57:57;7.28;;;4.55;;
51499;SDS011;39101;53.478;6.158;2022-07-18T01:00:23;7.57;;;4.43;;
51499;SDS011;39101;53.478;6.158;2022-07-18T01:03:08;6.60;;;4.00;;
51499;SDS011;39101;53.478;6.158;2022-07-18T01:05:34;5.72;;;3.75;;
51499;SDS011;39101;53.478;6.158;2022-07-18T01:08:00;8.00;;;4.97;;
51499;SDS011;39101;53.478;6.158;2022-07-18T01:10:26;7.00;;;4.75;;
51499;SDS011;39101;53.478;6.158;2022-07-18T01:12:51;8.38;;;4.63;;
51499;SDS011;39101;53.478;6.158;2022-07-18T01:15:17;7.20;;;4.53;;
51499;SDS011;39101;53.478;6.158;2022-07-18T01:17:43;7.97;;;4.22;;
51499;SDS011;39101;53.478;6.158;2022-07-18T01:20:09;9.05;;;4.55;;
51499;SDS011;39101;53.478;6.158;2022-07-18T01:22:35;10.75;;;4.45;;
51499;SDS011;39101;53.478;6.158;2022-07-18T01:25:01;8.10;;;5.32;;
51499;SDS011;39101;53.478;6.158;2022-07-18T01:27:27;8.45;;;4.40;;
51499;SDS011;39101;53.478;6.158;2022-07-18T01:29:53;8.18;;;4.55;;
51499;SDS011;39101;53.478;6.158;2022-07-18T01:32:19;9.68;;;4.43;;
51499;SDS011;39101;53.478;6.158;2022-07-18T01:34:46;11.05;;;4.95;;
51499;SDS011;39101;53.478;6.158;2022-07-18T01:37:13;8.30;;;5.10;;
51499;SDS011;39101;53.478;6.158;2022-07-18T01:39:40;8.70;;;5.30;;
51499;SDS011;39101;53.478;6.158;2022-07-18T01:42:07;8.48;;;4.95;;
51499;SDS011;39101;53.478;6.158;2022-07-18T01:44:34;8.32;;;5.05;;
51499;SDS011;39101;53.478;6.158;2022-07-18T01:47:00;8.35;;;5.68;;
51499;SDS011;39101;53.478;6.158;2022-07-18T01:49:28;7.32;;;4.97;;
51499;SDS011;39101;53.478;6.158;2022-07-18T01:51:57;8.82;;;4.97;;
51499;SDS011;39101;53.478;6.158;2022-07-18T01:54:25;8.50;;;6.35;;
51499;SDS011;39101;53.478;6.158;2022-07-18T01:56:52;8.15;;;5.53;;
51499;SDS011;39101;53.478;6.158;2022-07-18T01:59:18;8.15;;;5.75;;
51499;SDS011;39101;53.478;6.158;2022-07-18T02:01:44;9.80;;;5.85;;
51499;SDS011;39101;53.478;6.158;2022-07-18T02:04:10;7.82;;;5.65;;
51499;SDS011;39101;53.478;6.158;2022-07-18T02:06:35;7.70;;;5.18;;
51499;SDS011;39101;53.478;6.158;2022-07-18T02:09:02;7.45;;;4.97;;
51499;SDS011;39101;53.478;6.158;2022-07-18T02:11:28;9.27;;;6.13;;
51499;SDS011;39101;53.478;6.158;2022-07-18T02:13:54;9.30;;;5.25;;
51499;SDS011;39101;53.478;6.158;2022-07-18T02:16:19;8.63;;;5.78;;
51499;SDS011;39101;53.478;6.158;2022-07-18T02:18:45;8.45;;;5.50;;
51499;SDS011;39101;53.478;6.158;2022-07-18T02:21:11;9.95;;;6.13;;
51499;SDS011;39101;53.478;6.158;2022-07-18T02:23:39;9.10;;;6.55;;
51499;SDS011;39101;53.478;6.158;2022-07-18T02:26:05;9.23;;;6.35;;
51499;SDS011;39101;53.478;6.158;2022-07-18T02:28:31;7.65;;;5.57;;
51499;SDS011;39101;53.478;6.158;2022-07-18T02:30:57;9.13;;;5.60;;
51499;SDS011;39101;53.478;6.158;2022-07-18T02:33:23;7.95;;;5.50;;
51499;SDS011;39101;53.478;6.158;2022-07-18T02:35:49;7.90;;;5.30;;
51499;SDS011;39101;53.478;6.158;2022-07-18T02:38:14;10.15;;;5.78;;
51499;SDS011;39101;53.478;6.158;2022-07-18T02:40:40;12.35;;;6.32;;
51499;SDS011;39101;53.478;6.158;2022-07-18T02:43:06;9.55;;;5.53;;
51499;SDS011;39101;53.478;6.158;2022-07-18T02:45:32;9.77;;;6.28;;
51499;SDS011;39101;53.478;6.158;2022-07-18T02:47:57;9.25;;;6.18;;
51499;SDS011;39101;53.478;6.158;2022-07-18T02:50:23;11.50;;;6.22;;
51499;SDS011;39101;53.478;6.158;2022-07-18T02:52:49;9.68;;;5.75;;
51499;SDS011;39101;53.478;6.158;2022-07-18T02:55:15;11.02;;;5.93;;
51499;SDS011;39101;53.478;6.158;2022-07-18T02:57:41;9.82;;;5.97;;
51499;SDS011;39101;53.478;6.158;2022-07-18T03:00:08;9.23;;;5.95;;
51499;SDS011;39101;53.478;6.158;2022-07-18T03:02:36;9.63;;;5.32;;
51499;SDS011;39101;53.478;6.158;2022-07-18T03:05:02;10.15;;;5.35;;
51499;SDS011;39101;53.478;6.158;2022-07-18T03:07:29;9.63;;;5.60;;
51499;SDS011;39101;53.478;6.158;2022-07-18T03:09:56;10.80;;;6.05;;
51499;SDS011;39101;53.478;6.158;2022-07-18T03:12:21;9.38;;;5.13;;
51499;SDS011;39101;53.478;6.158;2022-07-18T03:14:47;12.38;;;6.93;;
51499;SDS011;39101;53.478;6.158;2022-07-18T03:17:13;10.75;;;6.45;;
51499;SDS011;39101;53.478;6.158;2022-07-18T03:19:38;8.93;;;5.20;;
51499;SDS011;39101;53.478;6.158;2022-07-18T03:22:04;12.32;;;6.05;;
51499;SDS011;39101;53.478;6.158;2022-07-18T03:24:31;9.90;;;5.47;;
51499;SDS011;39101;53.478;6.158;2022-07-18T03:26:57;9.25;;;6.20;;
51499;SDS011;39101;53.478;6.158;2022-07-18T03:29:23;17.02;;;6.82;;
51499;SDS011;39101;53.478;6.158;2022-07-18T03:31:49;10.02;;;5.80;;
51499;SDS011;39101;53.478;6.158;2022-07-18T03:34:15;9.25;;;7.00;;
51499;SDS011;39101;53.478;6.158;2022-07-18T03:36:41;8.25;;;6.53;;
51499;SDS011;39101;53.478;6.158;2022-07-18T03:39:07;10.70;;;6.13;;
51499;SDS011;39101;53.478;6.158;2022-07-18T03:41:33;11.43;;;6.38;;
51499;SDS011;39101;53.478;6.158;2022-07-18T03:43:59;11.90;;;6.97;;
51499;SDS011;39101;53.478;6.158;2022-07-18T03:46:25;11.13;;;6.65;;
51499;SDS011;39101;53.478;6.158;2022-07-18T03:48:51;12.23;;;6.57;;
51499;SDS011;39101;53.478;6.158;2022-07-18T03:51:17;10.80;;;6.68;;
51499;SDS011;39101;53.478;6.158;2022-07-18T03:53:42;10.90;;;6.35;;
51499;SDS011;39101;53.478;6.158;2022-07-18T03:56:08;9.77;;;6.18;;
51499;SDS011;39101;53.478;6.158;2022-07-18T03:58:34;14.45;;;7.05;;
51499;SDS011;39101;53.478;6.158;2022-07-18T04:01:00;10.13;;;6.85;;
51499;SDS011;39101;53.478;6.158;2022-07-18T04:03:26;12.02;;;7.22;;
51499;SDS011;39101;53.478;6.158;2022-07-18T04:05:51;9.73;;;6.25;;
51499;SDS011;39101;53.478;6.158;2022-07-18T04:08:17;11.23;;;6.55;;
51499;SDS011;39101;53.478;6.158;2022-07-18T04:10:43;13.88;;;6.97;;
51499;SDS011;39101;53.478;6.158;2022-07-18T04:13:08;9.00;;;6.43;;
51499;SDS011;39101;53.478;6.158;2022-07-18T04:15:34;10.48;;;6.38;;
51499;SDS011;39101;53.478;6.158;2022-07-18T04:18:01;8.05;;;6.40;;
51499;SDS011;39101;53.478;6.158;2022-07-18T04:20:27;12.50;;;7.93;;
51499;SDS011;39101;53.478;6.158;2022-07-18T04:22:54;10.65;;;6.63;;
51499;SDS011;39101;53.478;6.158;2022-07-18T04:25:22;10.45;;;7.00;;
51499;SDS011;39101;53.478;6.158;2022-07-18T04:27:50;11.82;;;7.72;;
51499;SDS011;39101;53.478;6.158;2022-07-18T04:30:17;14.10;;;7.15;;
51499;SDS011;39101;53.478;6.158;2022-07-18T04:32:47;13.13;;;6.60;;
51499;SDS011;39101;53.478;6.158;2022-07-18T04:35:13;10.45;;;6.22;;
51499;SDS011;39101;53.478;6.158;2022-07-18T04:37:39;13.25;;;7.25;;
51499;SDS011;39101;53.478;6.158;2022-07-18T04:40:05;10.23;;;6.70;;
51499;SDS011;39101;53.478;6.158;2022-07-18T04:42:32;9.50;;;7.05;;
51499;SDS011;39101;53.478;6.158;2022-07-18T04:44:58;10.25;;;6.78;;
51499;SDS011;39101;53.478;6.158;2022-07-18T04:47:24;10.02;;;6.93;;
51499;SDS011;39101;53.478;6.158;2022-07-18T04:49:51;10.20;;;6.38;;
51499;SDS011;39101;53.478;6.158;2022-07-18T04:52:17;10.63;;;6.88;;
51499;SDS011;39101;53.478;6.158;2022-07-18T04:54:43;10.90;;;6.47;;
51499;SDS011;39101;53.478;6.158;2022-07-18T04:57:08;11.20;;;7.28;;
51499;SDS011;39101;53.478;6.158;2022-07-18T04:59:36;12.05;;;6.40;;
51499;SDS011;39101;53.478;6.158;2022-07-18T05:02:03;10.80;;;6.97;;
51499;SDS011;39101;53.478;6.158;2022-07-18T05:04:28;11.48;;;6.82;;
51499;SDS011;39101;53.478;6.158;2022-07-18T05:06:54;11.20;;;6.82;;
51499;SDS011;39101;53.478;6.158;2022-07-18T05:09:20;10.23;;;6.47;;
51499;SDS011;39101;53.478;6.158;2022-07-18T05:11:46;9.57;;;6.75;;
51499;SDS011;39101;53.478;6.158;2022-07-18T05:14:11;10.80;;;6.80;;
51499;SDS011;39101;53.478;6.158;2022-07-18T05:16:37;11.55;;;6.90;;
51499;SDS011;39101;53.478;6.158;2022-07-18T05:19:03;12.65;;;6.55;;
51499;SDS011;39101;53.478;6.158;2022-07-18T05:21:28;10.75;;;6.65;;
51499;SDS011;39101;53.478;6.158;2022-07-18T05:23:55;8.48;;;6.20;;
51499;SDS011;39101;53.478;6.158;2022-07-18T05:26:21;9.57;;;7.05;;
51499;SDS011;39101;53.478;6.158;2022-07-18T05:28:47;8.85;;;6.25;;
51499;SDS011;39101;53.478;6.158;2022-07-18T05:31:12;10.07;;;5.85;;
51499;SDS011;39101;53.478;6.158;2022-07-18T05:33:38;10.15;;;5.72;;
51499;SDS011;39101;53.478;6.158;2022-07-18T05:36:04;9.35;;;5.55;;
51499;SDS011;39101;53.478;6.158;2022-07-18T05:38:30;7.57;;;4.90;;
51499;SDS011;39101;53.478;6.158;2022-07-18T05:40:56;8.27;;;5.40;;
51499;SDS011;39101;53.478;6.158;2022-07-18T05:43:22;9.27;;;5.35;;
51499;SDS011;39101;53.478;6.158;2022-07-18T05:45:48;12.68;;;6.00;;
51499;SDS011;39101;53.478;6.158;2022-07-18T05:48:14;9.10;;;5.60;;
51499;SDS011;39101;53.478;6.158;2022-07-18T05:50:39;9.93;;;4.63;;
51499;SDS011;39101;53.478;6.158;2022-07-18T05:53:05;9.02;;;5.70;;
51499;SDS011;39101;53.478;6.158;2022-07-18T05:55:31;9.75;;;5.50;;
51499;SDS011;39101;53.478;6.158;2022-07-18T05:57:57;9.35;;;5.20;;
51499;SDS011;39101;53.478;6.158;2022-07-18T06:00:22;8.23;;;5.35;;
51499;SDS011;39101;53.478;6.158;2022-07-18T06:02:48;9.68;;;6.65;;
51499;SDS011;39101;53.478;6.158;2022-07-18T06:05:14;9.15;;;5.75;;
51499;SDS011;39101;53.478;6.158;2022-07-18T06:07:40;8.70;;;6.22;;
51499;SDS011;39101;53.478;6.158;2022-07-18T06:10:07;9.77;;;6.30;;
51499;SDS011;39101;53.478;6.158;2022-07-18T06:12:33;7.72;;;5.63;;
51499;SDS011;39101;53.478;6.158;2022-07-18T06:14:59;8.93;;;5.95;;
51499;SDS011;39101;53.478;6.158;2022-07-18T06:17:25;9.80;;;5.45;;
51499;SDS011;39101;53.478;6.158;2022-07-18T06:19:52;10.80;;;5.22;;
51499;SDS011;39101;53.478;6.158;2022-07-18T06:22:19;9.40;;;5.30;;
51499;SDS011;39101;53.478;6.158;2022-07-18T06:24:45;14.63;;;6.70;;
51499;SDS011;39101;53.478;6.158;2022-07-18T06:27:10;11.40;;;6.55;;
51499;SDS011;39101;53.478;6.158;2022-07-18T06:29:36;7.45;;;5.25;;
51499;SDS011;39101;53.478;6.158;2022-07-18T06:32:02;9.82;;;5.15;;
51499;SDS011;39101;53.478;6.158;2022-07-18T06:34:27;9.95;;;5.28;;
51499;SDS011;39101;53.478;6.158;2022-07-18T06:36:53;8.95;;;5.13;;
51499;SDS011;39101;53.478;6.158;2022-07-18T06:39:19;7.22;;;4.53;;
51499;SDS011;39101;53.478;6.158;2022-07-18T06:41:44;10.07;;;5.15;;
51499;SDS011;39101;53.478;6.158;2022-07-18T06:44:10;8.02;;;4.15;;
51499;SDS011;39101;53.478;6.158;2022-07-18T06:46:36;9.02;;;4.63;;
51499;SDS011;39101;53.478;6.158;2022-07-18T06:49:03;8.82;;;4.45;;
51499;SDS011;39101;53.478;6.158;2022-07-18T06:51:29;6.47;;;4.03;;
51499;SDS011;39101;53.478;6.158;2022-07-18T06:53:56;7.78;;;4.97;;
51499;SDS011;39101;53.478;6.158;2022-07-18T06:56:22;8.52;;;4.32;;
51499;SDS011;39101;53.478;6.158;2022-07-18T06:58:48;6.68;;;4.53;;
51499;SDS011;39101;53.478;6.158;2022-07-18T07:01:15;8.38;;;4.45;;
51499;SDS011;39101;53.478;6.158;2022-07-18T07:03:42;9.65;;;4.50;;
51499;SDS011;39101;53.478;6.158;2022-07-18T07:06:08;8.73;;;3.90;;
51499;SDS011;39101;53.478;6.158;2022-07-18T07:08:33;10.20;;;4.47;;
51499;SDS011;39101;53.478;6.158;2022-07-18T07:11:00;7.13;;;4.45;;
51499;SDS011;39101;53.478;6.158;2022-07-18T07:13:25;8.13;;;3.88;;
51499;SDS011;39101;53.478;6.158;2022-07-18T07:15:51;6.75;;;4.00;;
51499;SDS011;39101;53.478;6.158;2022-07-18T07:18:17;12.02;;;4.55;;
51499;SDS011;39101;53.478;6.158;2022-07-18T07:20:42;6.28;;;3.83;;
51499;SDS011;39101;53.478;6.158;2022-07-18T07:23:09;9.32;;;4.45;;
51499;SDS011;39101;53.478;6.158;2022-07-18T07:25:35;9.38;;;3.65;;
51499;SDS011;39101;53.478;6.158;2022-07-18T07:28:01;8.50;;;4.03;;
51499;SDS011;39101;53.478;6.158;2022-07-18T07:30:28;7.95;;;3.90;;
51499;SDS011;39101;53.478;6.158;2022-07-18T07:32:54;7.32;;;3.95;;
51499;SDS011;39101;53.478;6.158;2022-07-18T07:35:20;6.18;;;3.55;;
51499;SDS011;39101;53.478;6.158;2022-07-18T07:37:47;6.93;;;3.97;;
51499;SDS011;39101;53.478;6.158;2022-07-18T07:40:15;5.70;;;3.30;;
51499;SDS011;39101;53.478;6.158;2022-07-18T07:42:41;6.53;;;3.35;;
51499;SDS011;39101;53.478;6.158;2022-07-18T07:45:07;6.50;;;3.60;;
51499;SDS011;39101;53.478;6.158;2022-07-18T07:47:34;6.43;;;3.22;;
51499;SDS011;39101;53.478;6.158;2022-07-18T07:50:00;6.72;;;3.28;;
51499;SDS011;39101;53.478;6.158;2022-07-18T07:52:27;6.65;;;4.03;;
51499;SDS011;39101;53.478;6.158;2022-07-18T07:54:53;7.82;;;3.85;;
51499;SDS011;39101;53.478;6.158;2022-07-18T07:57:19;7.93;;;3.60;;
51499;SDS011;39101;53.478;6.158;2022-07-18T07:59:45;6.78;;;3.38;;
51499;SDS011;39101;53.478;6.158;2022-07-18T08:02:11;4.45;;;2.97;;
51499;SDS011;39101;53.478;6.158;2022-07-18T08:04:37;6.53;;;3.33;;
51499;SDS011;39101;53.478;6.158;2022-07-18T08:07:02;7.28;;;3.03;;
51499;SDS011;39101;53.478;6.158;2022-07-18T08:09:28;7.82;;;3.13;;
51499;SDS011;39101;53.478;6.158;2022-07-18T08:11:54;9.18;;;3.60;;
51499;SDS011;39101;53.478;6.158;2022-07-18T08:14:19;6.45;;;3.05;;
51499;SDS011;39101;53.478;6.158;2022-07-18T08:16:45;8.27;;;2.72;;
51499;SDS011;39101;53.478;6.158;2022-07-18T08:19:11;6.93;;;3.00;;
51499;SDS011;39101;53.478;6.158;2022-07-18T08:21:37;5.97;;;3.08;;
51499;SDS011;39101;53.478;6.158;2022-07-18T08:24:02;6.55;;;2.67;;
51499;SDS011;39101;53.478;6.158;2022-07-18T08:26:28;4.97;;;2.65;;
51499;SDS011;39101;53.478;6.158;2022-07-18T08:28:54;4.97;;;2.63;;
51499;SDS011;39101;53.478;6.158;2022-07-18T08:31:20;6.68;;;2.33;;
51499;SDS011;39101;53.478;6.158;2022-07-18T08:33:46;4.93;;;2.15;;
51499;SDS011;39101;53.478;6.158;2022-07-18T08:36:12;6.47;;;2.40;;
51499;SDS011;39101;53.478;6.158;2022-07-18T08:38:38;5.97;;;2.55;;
51499;SDS011;39101;53.478;6.158;2022-07-18T08:41:04;5.30;;;2.60;;
51499;SDS011;39101;53.478;6.158;2022-07-18T08:43:30;5.85;;;2.30;;
51499;SDS011;39101;53.478;6.158;2022-07-18T08:46:03;6.15;;;2.42;;
51499;SDS011;39101;53.478;6.158;2022-07-18T08:48:31;4.75;;;2.30;;
51499;SDS011;39101;53.478;6.158;2022-07-18T08:50:58;6.25;;;2.50;;
51499;SDS011;39101;53.478;6.158;2022-07-18T08:53:25;6.70;;;2.10;;
51499;SDS011;39101;53.478;6.158;2022-07-18T08:55:51;5.05;;;2.70;;
51499;SDS011;39101;53.478;6.158;2022-07-18T08:58:17;9.18;;;2.42;;
51499;SDS011;39101;53.478;6.158;2022-07-18T09:00:44;7.53;;;2.03;;
51499;SDS011;39101;53.478;6.158;2022-07-18T09:03:10;5.15;;;2.33;;
51499;SDS011;39101;53.478;6.158;2022-07-18T09:05:36;7.32;;;2.47;;
51499;SDS011;39101;53.478;6.158;2022-07-18T09:08:15;7.05;;;2.00;;
51499;SDS011;39101;53.478;6.158;2022-07-18T09:10:48;5.22;;;2.05;;
51499;SDS011;39101;53.478;6.158;2022-07-18T09:13:15;6.78;;;2.50;;
51499;SDS011;39101;53.478;6.158;2022-07-18T09:18:37;5.35;;;2.35;;
51499;SDS011;39101;53.478;6.158;2022-07-18T09:21:04;6.25;;;2.10;;
51499;SDS011;39101;53.478;6.158;2022-07-18T09:23:42;6.72;;;2.42;;
51499;SDS011;39101;53.478;6.158;2022-07-18T09:26:09;7.00;;;2.45;;
51499;SDS011;39101;53.478;6.158;2022-07-18T09:28:49;7.97;;;2.72;;
51499;SDS011;39101;53.478;6.158;2022-07-18T09:31:17;6.80;;;2.38;;
51499;SDS011;39101;53.478;6.158;2022-07-18T09:36:20;6.18;;;2.83;;
51499;SDS011;39101;53.478;6.158;2022-07-18T09:38:46;4.82;;;1.88;;
51499;SDS011;39101;53.478;6.158;2022-07-18T09:41:11;5.90;;;2.83;;
51499;SDS011;39101;53.478;6.158;2022-07-18T09:43:38;8.90;;;3.20;;
51499;SDS011;39101;53.478;6.158;2022-07-18T09:46:04;8.35;;;2.47;;
51499;SDS011;39101;53.478;6.158;2022-07-18T09:48:31;5.13;;;2.47;;
51499;SDS011;39101;53.478;6.158;2022-07-18T09:51:06;8.38;;;2.45;;
51499;SDS011;39101;53.478;6.158;2022-07-18T09:56:03;8.05;;;2.58;;
51499;SDS011;39101;53.478;6.158;2022-07-18T09:58:35;6.80;;;2.87;;
51499;SDS011;39101;53.478;6.158;2022-07-18T10:01:02;8.55;;;2.90;;
51499;SDS011;39101;53.478;6.158;2022-07-18T10:03:29;6.40;;;2.65;;
51499;SDS011;39101;53.478;6.158;2022-07-18T10:05:55;8.15;;;3.08;;
51499;SDS011;39101;53.478;6.158;2022-07-18T10:08:23;11.45;;;3.20;;
51499;SDS011;39101;53.478;6.158;2022-07-18T10:10:51;7.00;;;3.47;;
51499;SDS011;39101;53.478;6.158;2022-07-18T10:13:18;7.35;;;3.08;;
51499;SDS011;39101;53.478;6.158;2022-07-18T10:15:46;8.82;;;3.67;;
51499;SDS011;39101;53.478;6.158;2022-07-18T10:18:14;8.48;;;3.67;;
51499;SDS011;39101;53.478;6.158;2022-07-18T10:23:19;8.77;;;3.40;;
51499;SDS011;39101;53.478;6.158;2022-07-18T10:31:21;6.63;;;2.92;;
51499;SDS011;39101;53.478;6.158;2022-07-18T10:33:48;6.93;;;3.10;;
51499;SDS011;39101;53.478;6.158;2022-07-18T10:36:15;10.82;;;3.15;;
51499;SDS011;39101;53.478;6.158;2022-07-18T10:41:33;7.18;;;3.00;;
51499;SDS011;39101;53.478;6.158;2022-07-18T10:57:41;6.38;;;2.88;;
51499;SDS011;39101;53.478;6.158;2022-07-18T11:21:19;5.25;;;2.58;;
51499;SDS011;39101;53.478;6.158;2022-07-18T11:23:53;6.93;;;3.00;;
51499;SDS011;39101;53.478;6.158;2022-07-18T11:26:26;5.82;;;2.75;;
51499;SDS011;39101;53.478;6.158;2022-07-18T11:28:58;8.00;;;3.10;;
51499;SDS011;39101;53.478;6.158;2022-07-18T11:31:28;6.60;;;2.88;;
51499;SDS011;39101;53.478;6.158;2022-07-18T11:33:55;7.35;;;3.10;;
51499;SDS011;39101;53.478;6.158;2022-07-18T11:36:28;5.80;;;3.55;;
51499;SDS011;39101;53.478;6.158;2022-07-18T11:38:56;6.38;;;3.20;;
51499;SDS011;39101;53.478;6.158;2022-07-18T11:41:24;5.28;;;2.85;;
51499;SDS011;39101;53.478;6.158;2022-07-18T11:43:51;5.70;;;3.28;;
51499;SDS011;39101;53.478;6.158;2022-07-18T11:46:19;10.63;;;3.45;;
51499;SDS011;39101;53.478;6.158;2022-07-18T11:48:48;5.88;;;2.50;;
51499;SDS011;39101;53.478;6.158;2022-07-18T11:51:22;5.70;;;2.70;;
51499;SDS011;39101;53.478;6.158;2022-07-18T11:53:53;9.10;;;3.03;;
51499;SDS011;39101;53.478;6.158;2022-07-18T11:56:20;7.95;;;2.80;;
51499;SDS011;39101;53.478;6.158;2022-07-18T11:58:47;5.85;;;2.38;;
51499;SDS011;39101;53.478;6.158;2022-07-18T12:01:14;6.78;;;2.00;;
51499;SDS011;39101;53.478;6.158;2022-07-18T12:03:41;6.45;;;2.10;;
51499;SDS011;39101;53.478;6.158;2022-07-18T12:06:13;4.38;;;1.98;;
51499;SDS011;39101;53.478;6.158;2022-07-18T12:08:50;4.82;;;2.05;;
51499;SDS011;39101;53.478;6.158;2022-07-18T12:11:18;6.05;;;2.65;;
51499;SDS011;39101;53.478;6.158;2022-07-18T12:13:52;2.47;;;1.63;;
51499;SDS011;39101;53.478;6.158;2022-07-18T12:19:00;4.82;;;2.33;;
51499;SDS011;39101;53.478;6.158;2022-07-18T12:26:45;5.93;;;2.08;;
51499;SDS011;39101;53.478;6.158;2022-07-18T12:29:11;4.70;;;1.77;;
51499;SDS011;39101;53.478;6.158;2022-07-18T12:31:37;6.70;;;2.53;;
51499;SDS011;39101;53.478;6.158;2022-07-18T12:34:12;4.07;;;1.80;;
51499;SDS011;39101;53.478;6.158;2022-07-18T12:36:55;5.20;;;1.75;;
51499;SDS011;39101;53.478;6.158;2022-07-18T12:39:29;6.32;;;2.20;;
51499;SDS011;39101;53.478;6.158;2022-07-18T12:41:57;5.60;;;2.40;;
51499;SDS011;39101;53.478;6.158;2022-07-18T12:44:27;4.68;;;1.70;;
51499;SDS011;39101;53.478;6.158;2022-07-18T12:46:53;5.30;;;2.05;;
51499;SDS011;39101;53.478;6.158;2022-07-18T12:49:19;7.00;;;1.77;;
51499;SDS011;39101;53.478;6.158;2022-07-18T12:51:46;7.80;;;2.38;;
51499;SDS011;39101;53.478;6.158;2022-07-18T12:54:12;5.10;;;1.92;;
51499;SDS011;39101;53.478;6.158;2022-07-18T12:56:38;4.45;;;1.80;;
51499;SDS011;39101;53.478;6.158;2022-07-18T12:59:04;4.43;;;2.05;;
51499;SDS011;39101;53.478;6.158;2022-07-18T13:01:31;5.78;;;2.30;;
51499;SDS011;39101;53.478;6.158;2022-07-18T13:03:57;6.25;;;2.15;;
51499;SDS011;39101;53.478;6.158;2022-07-18T13:06:22;5.45;;;2.03;;
51499;SDS011;39101;53.478;6.158;2022-07-18T13:08:48;6.38;;;1.98;;
51499;SDS011;39101;53.478;6.158;2022-07-18T13:11:14;7.05;;;2.88;;
51499;SDS011;39101;53.478;6.158;2022-07-18T13:13:39;5.85;;;2.28;;
51499;SDS011;39101;53.478;6.158;2022-07-18T13:16:05;4.57;;;2.00;;
51499;SDS011;39101;53.478;6.158;2022-07-18T13:18:31;6.53;;;2.03;;
51499;SDS011;39101;53.478;6.158;2022-07-18T13:20:56;6.43;;;2.00;;
51499;SDS011;39101;53.478;6.158;2022-07-18T13:23:22;5.85;;;2.00;;
51499;SDS011;39101;53.478;6.158;2022-07-18T13:25:48;6.40;;;2.30;;
51499;SDS011;39101;53.478;6.158;2022-07-18T13:28:14;4.10;;;2.00;;
51499;SDS011;39101;53.478;6.158;2022-07-18T13:30:39;5.53;;;2.45;;
51499;SDS011;39101;53.478;6.158;2022-07-18T13:33:05;5.05;;;2.35;;
51499;SDS011;39101;53.478;6.158;2022-07-18T13:35:31;6.90;;;2.55;;
51499;SDS011;39101;53.478;6.158;2022-07-18T13:37:57;3.35;;;2.00;;
51499;SDS011;39101;53.478;6.158;2022-07-18T13:40:23;3.58;;;1.75;;
51499;SDS011;39101;53.478;6.158;2022-07-18T13:42:48;7.22;;;2.85;;
51499;SDS011;39101;53.478;6.158;2022-07-18T13:45:14;4.68;;;2.45;;
51499;SDS011;39101;53.478;6.158;2022-07-18T13:47:40;5.35;;;2.35;;
51499;SDS011;39101;53.478;6.158;2022-07-18T13:50:07;5.70;;;2.25;;
51499;SDS011;39101;53.478;6.158;2022-07-18T13:52:34;5.35;;;2.50;;
51499;SDS011;39101;53.478;6.158;2022-07-18T13:55:00;5.43;;;2.03;;
51499;SDS011;39101;53.478;6.158;2022-07-18T13:57:25;5.78;;;2.65;;
51499;SDS011;39101;53.478;6.158;2022-07-18T13:59:51;5.95;;;2.72;;
51499;SDS011;39101;53.478;6.158;2022-07-18T14:02:17;5.50;;;2.40;;
51499;SDS011;39101;53.478;6.158;2022-07-18T14:04:43;6.95;;;2.45;;
51499;SDS011;39101;53.478;6.158;2022-07-18T14:07:09;5.68;;;2.50;;
51499;SDS011;39101;53.478;6.158;2022-07-18T14:09:36;5.43;;;2.75;;
51499;SDS011;39101;53.478;6.158;2022-07-18T14:12:03;7.30;;;2.38;;
51499;SDS011;39101;53.478;6.158;2022-07-18T14:14:29;8.05;;;2.70;;
51499;SDS011;39101;53.478;6.158;2022-07-18T14:16:55;6.90;;;2.20;;
51499;SDS011;39101;53.478;6.158;2022-07-18T14:19:20;4.65;;;1.90;;
51499;SDS011;39101;53.478;6.158;2022-07-18T14:21:46;4.78;;;1.88;;
51499;SDS011;39101;53.478;6.158;2022-07-18T14:24:12;7.15;;;2.17;;
51499;SDS011;39101;53.478;6.158;2022-07-18T14:26:38;5.93;;;2.00;;
51499;SDS011;39101;53.478;6.158;2022-07-18T14:29:04;6.10;;;2.40;;
51499;SDS011;39101;53.478;6.158;2022-07-18T14:31:29;7.15;;;2.30;;
51499;SDS011;39101;53.478;6.158;2022-07-18T14:33:55;6.15;;;2.28;;
51499;SDS011;39101;53.478;6.158;2022-07-18T14:36:20;4.20;;;1.92;;
51499;SDS011;39101;53.478;6.158;2022-07-18T14:38:46;6.20;;;2.30;;
51499;SDS011;39101;53.478;6.158;2022-07-18T14:41:12;5.25;;;2.15;;
51499;SDS011;39101;53.478;6.158;2022-07-18T14:43:38;5.80;;;1.88;;
51499;SDS011;39101;53.478;6.158;2022-07-18T14:46:04;7.18;;;2.53;;
51499;SDS011;39101;53.478;6.158;2022-07-18T14:48:30;5.90;;;2.10;;
51499;SDS011;39101;53.478;6.158;2022-07-18T14:50:56;3.88;;;1.90;;
51499;SDS011;39101;53.478;6.158;2022-07-18T14:53:22;6.47;;;2.40;;
51499;SDS011;39101;53.478;6.158;2022-07-18T14:55:47;7.38;;;2.53;;
51499;SDS011;39101;53.478;6.158;2022-07-18T14:58:13;7.38;;;2.13;;
51499;SDS011;39101;53.478;6.158;2022-07-18T15:00:39;5.85;;;2.35;;
51499;SDS011;39101;53.478;6.158;2022-07-18T15:03:04;7.78;;;2.33;;
51499;SDS011;39101;53.478;6.158;2022-07-18T15:05:30;7.63;;;2.33;;
51499;SDS011;39101;53.478;6.158;2022-07-18T15:07:56;4.95;;;2.05;;
51499;SDS011;39101;53.478;6.158;2022-07-18T15:10:22;5.25;;;2.15;;
51499;SDS011;39101;53.478;6.158;2022-07-18T15:12:47;5.10;;;2.10;;
51499;SDS011;39101;53.478;6.158;2022-07-18T15:15:13;5.60;;;2.30;;
51499;SDS011;39101;53.478;6.158;2022-07-18T15:17:39;6.22;;;2.17;;
51499;SDS011;39101;53.478;6.158;2022-07-18T15:20:06;6.78;;;2.25;;
51499;SDS011;39101;53.478;6.158;2022-07-18T15:22:33;5.10;;;1.70;;
51499;SDS011;39101;53.478;6.158;2022-07-18T15:24:59;5.32;;;2.83;;
51499;SDS011;39101;53.478;6.158;2022-07-18T15:27:24;4.53;;;2.30;;
51499;SDS011;39101;53.478;6.158;2022-07-18T15:29:50;5.43;;;2.10;;
51499;SDS011;39101;53.478;6.158;2022-07-18T15:32:16;6.30;;;2.60;;
51499;SDS011;39101;53.478;6.158;2022-07-18T15:34:42;6.20;;;2.33;;
51499;SDS011;39101;53.478;6.158;2022-07-18T15:37:07;7.70;;;2.22;;
51499;SDS011;39101;53.478;6.158;2022-07-18T15:39:33;5.28;;;2.45;;
51499;SDS011;39101;53.478;6.158;2022-07-18T15:41:59;7.57;;;2.47;;
51499;SDS011;39101;53.478;6.158;2022-07-18T15:44:25;2.83;;;1.75;;